sensor_id;sensor_type;location;lat;lon;timestamp;pressure;altitude;pressure_sealevel;temperature;humidity
11172;BME280;5642;50.830;12.082;2023-06-22T00:00:53;99684.69;;;22.06;44.75
11172;BME280;5642;50.830;12.082;2023-06-22T00:03:27;99685.53;;;22.07;44.89
11172;BME280;5642;50.830;12.082;2023-06-22T00:05:57;99679.56;;;22.03;44.79
11172;BME280;5642;50.830;12.082;2023-06-22T00:08:28;99674.47;;;22.00;44.85
11172;BME280;5642;50.830;12.082;2023-06-22T00:11:00;99676.19;;;22.01;44.87
11172;BME280;5642;50.830;12.082;2023-06-22T00:13:27;99669.44;;;21.96;44.66
11172;BME280;5642;50.830;12.082;2023-06-22T00:15:59;99657.53;;;21.88;44.98
11172;BME280;5642;50.830;12.082;2023-06-22T00:18:31;99683.56;;;21.98;44.94
11172;BME280;5642;50.830;12.082;2023-06-22T00:20:59;99687.28;;;21.95;45.23
11172;BME280;5642;50.830;12.082;2023-06-22T00:23:29;99686.66;;;21.92;45.02
11172;BME280;5642;50.830;12.082;2023-06-22T00:26:00;99693.19;;;21.87;45.17
11172;BME280;5642;50.830;12.082;2023-06-22T00:28:27;99684.44;;;21.85;45.17
11172;BME280;5642;50.830;12.082;2023-06-22T00:30:54;99680.28;;;21.81;45.04
11172;BME280;5642;50.830;12.082;2023-06-22T00:33:21;99675.28;;;21.77;45.40
11172;BME280;5642;50.830;12.082;2023-06-22T00:35:47;99679.16;;;21.73;45.24
11172;BME280;5642;50.830;12.082;2023-06-22T00:38:13;99677.75;;;21.67;45.55
11172;BME280;5642;50.830;12.082;2023-06-22T00:40:39;99677.91;;;21.66;45.39
11172;BME280;5642;50.830;12.082;2023-06-22T00:43:06;99681.72;;;21.62;45.43
11172;BME280;5642;50.830;12.082;2023-06-22T00:45:36;99685.34;;;21.61;45.62
11172;BME280;5642;50.830;12.082;2023-06-22T00:48:05;99655.91;;;21.38;45.67
11172;BME280;5642;50.830;12.082;2023-06-22T00:50:33;99693.59;;;21.58;45.80
11172;BME280;5642;50.830;12.082;2023-06-22T00:53:08;99686.75;;;21.54;45.63
11172;BME280;5642;50.830;12.082;2023-06-22T00:55:42;99675.59;;;21.48;45.87
11172;BME280;5642;50.830;12.082;2023-06-22T00:58:19;99670.72;;;21.42;45.80
11172;BME280;5642;50.830;12.082;2023-06-22T01:00:49;99667.69;;;21.47;45.78
11172;BME280;5642;50.830;12.082;2023-06-22T01:03:16;99654.81;;;21.41;45.88
11172;BME280;5642;50.830;12.082;2023-06-22T01:05:46;99666.34;;;21.41;45.84
11172;BME280;5642;50.830;12.082;2023-06-22T01:08:46;99671.25;;;21.35;46.15
11172;BME280;5642;50.830;12.082;2023-06-22T01:11:27;99670.66;;;21.31;46.29
11172;BME280;5642;50.830;12.082;2023-06-22T01:14:13;99670.00;;;21.28;45.99
11172;BME280;5642;50.830;12.082;2023-06-22T01:16:48;99666.16;;;21.19;46.26
11172;BME280;5642;50.830;12.082;2023-06-22T01:19:37;99649.53;;;21.16;46.15
11172;BME280;5642;50.830;12.082;2023-06-22T01:22:16;99634.28;;;21.05;46.20
11172;BME280;5642;50.830;12.082;2023-06-22T01:25:12;99641.13;;;21.09;46.25
11172;BME280;5642;50.830;12.082;2023-06-22T01:28:05;99626.53;;;21.02;46.22
11172;BME280;5642;50.830;12.082;2023-06-22T01:30:45;99621.53;;;20.97;46.32
11172;BME280;5642;50.830;12.082;2023-06-22T01:33:15;99630.78;;;21.04;46.49
11172;BME280;5642;50.830;12.082;2023-06-22T01:35:43;99641.34;;;21.06;46.19
11172;BME280;5642;50.830;12.082;2023-06-22T01:38:14;99644.00;;;21.06;46.34
11172;BME280;5642;50.830;12.082;2023-06-22T01:40:49;99639.72;;;21.03;46.18
11172;BME280;5642;50.830;12.082;2023-06-22T01:43:17;99653.19;;;21.02;46.20
11172;BME280;5642;50.830;12.082;2023-06-22T01:45:54;99656.88;;;20.99;46.40
11172;BME280;5642;50.830;12.082;2023-06-22T01:48:27;99666.78;;;20.97;46.26
11172;BME280;5642;50.830;12.082;2023-06-22T01:51:02;99660.09;;;20.92;46.52
11172;BME280;5642;50.830;12.082;2023-06-22T01:53:48;99667.97;;;20.93;46.33
11172;BME280;5642;50.830;12.082;2023-06-22T01:56:34;99671.69;;;20.91;46.70
11172;BME280;5642;50.830;12.082;2023-06-22T01:59:30;99657.44;;;20.92;46.58
11172;BME280;5642;50.830;12.082;2023-06-22T02:02:08;99664.25;;;20.96;46.91
11172;BME280;5642;50.830;12.082;2023-06-22T02:04:44;99663.41;;;20.95;46.41
11172;BME280;5642;50.830;12.082;2023-06-22T02:07:15;99667.03;;;20.94;46.59
11172;BME280;5642;50.830;12.082;2023-06-22T02:09:45;99657.66;;;20.89;46.71
11172;BME280;5642;50.830;12.082;2023-06-22T02:12:18;99657.66;;;20.89;46.85
11172;BME280;5642;50.830;12.082;2023-06-22T02:14:47;99634.22;;;20.81;46.71
11172;BME280;5642;50.830;12.082;2023-06-22T02:17:14;99647.53;;;20.81;46.64
11172;BME280;5642;50.830;12.082;2023-06-22T02:19:41;99660.72;;;20.83;47.08
11172;BME280;5642;50.830;12.082;2023-06-22T02:22:07;99662.66;;;20.81;46.78
11172;BME280;5642;50.830;12.082;2023-06-22T02:24:34;99669.25;;;20.75;47.06
11172;BME280;5642;50.830;12.082;2023-06-22T02:27:01;99654.34;;;20.73;46.74
11172;BME280;5642;50.830;12.082;2023-06-22T02:29:28;99652.75;;;20.70;47.25
11172;BME280;5642;50.830;12.082;2023-06-22T02:31:55;99650.31;;;20.67;47.43
11172;BME280;5642;50.830;12.082;2023-06-22T02:34:21;99647.84;;;20.64;47.33
11172;BME280;5642;50.830;12.082;2023-06-22T02:36:48;99633.47;;;20.54;47.33
11172;BME280;5642;50.830;12.082;2023-06-22T02:39:22;99648.91;;;20.61;47.42
11172;BME280;5642;50.830;12.082;2023-06-22T02:41:53;99650.94;;;20.58;47.54
11172;BME280;5642;50.830;12.082;2023-06-22T02:44:20;99656.16;;;20.59;47.26
11172;BME280;5642;50.830;12.082;2023-06-22T02:46:47;99658.81;;;20.59;47.28
11172;BME280;5642;50.830;12.082;2023-06-22T02:49:13;99673.41;;;20.66;47.35
11172;BME280;5642;50.830;12.082;2023-06-22T02:51:44;99665.00;;;20.73;47.05
11172;BME280;5642;50.830;12.082;2023-06-22T02:54:11;99653.06;;;20.78;47.28
11172;BME280;5642;50.830;12.082;2023-06-22T02:56:37;99633.25;;;20.82;47.09
11172;BME280;5642;50.830;12.082;2023-06-22T02:59:03;99637.50;;;20.97;47.17
11172;BME280;5642;50.830;12.082;2023-06-22T03:01:29;99639.09;;;21.00;46.86
11172;BME280;5642;50.830;12.082;2023-06-22T03:03:56;99643.66;;;21.10;47.07
11172;BME280;5642;50.830;12.082;2023-06-22T03:06:22;99638.31;;;21.10;47.06
11172;BME280;5642;50.830;12.082;2023-06-22T03:08:51;99657.13;;;21.22;46.99
11172;BME280;5642;50.830;12.082;2023-06-22T03:11:17;99655.91;;;21.26;47.04
11172;BME280;5642;50.830;12.082;2023-06-22T03:13:43;99659.84;;;21.33;47.08
11172;BME280;5642;50.830;12.082;2023-06-22T03:16:11;99651.31;;;21.40;46.91
11172;BME280;5642;50.830;12.082;2023-06-22T03:18:37;99648.94;;;21.48;46.81
11172;BME280;5642;50.830;12.082;2023-06-22T03:21:03;99641.59;;;21.52;46.90
11172;BME280;5642;50.830;12.082;2023-06-22T03:23:29;99649.03;;;21.60;47.08
11172;BME280;5642;50.830;12.082;2023-06-22T03:25:55;99656.28;;;21.58;46.87
11172;BME280;5642;50.830;12.082;2023-06-22T03:28:21;99675.94;;;21.68;46.84
11172;BME280;5642;50.830;12.082;2023-06-22T03:30:50;99677.56;;;21.70;46.96
11172;BME280;5642;50.830;12.082;2023-06-22T03:33:16;99676.41;;;21.62;47.16
11172;BME280;5642;50.830;12.082;2023-06-22T03:35:42;99691.00;;;21.69;47.08
11172;BME280;5642;50.830;12.082;2023-06-22T03:38:08;99699.38;;;21.75;47.16
11172;BME280;5642;50.830;12.082;2023-06-22T03:40:35;99705.59;;;21.76;47.32
11172;BME280;5642;50.830;12.082;2023-06-22T03:43:01;99717.19;;;21.75;47.01
11172;BME280;5642;50.830;12.082;2023-06-22T03:45:27;99733.28;;;21.86;47.04
11172;BME280;5642;50.830;12.082;2023-06-22T03:47:53;99748.44;;;21.98;47.19
11172;BME280;5642;50.830;12.082;2023-06-22T03:50:19;99758.53;;;22.06;47.13
11172;BME280;5642;50.830;12.082;2023-06-22T03:52:46;99764.56;;;22.20;46.96
11172;BME280;5642;50.830;12.082;2023-06-22T03:55:12;99751.97;;;22.22;46.84
11172;BME280;5642;50.830;12.082;2023-06-22T03:57:38;99780.59;;;22.44;46.68
11172;BME280;5642;50.830;12.082;2023-06-22T04:00:05;99789.28;;;22.59;46.62
11172;BME280;5642;50.830;12.082;2023-06-22T04:02:33;99804.69;;;22.66;46.58
11172;BME280;5642;50.830;12.082;2023-06-22T04:05:00;99813.66;;;22.78;46.37
11172;BME280;5642;50.830;12.082;2023-06-22T04:07:26;99794.66;;;22.70;46.42
11172;BME280;5642;50.830;12.082;2023-06-22T04:09:52;99805.53;;;22.67;46.59
11172;BME280;5642;50.830;12.082;2023-06-22T04:12:19;99814.00;;;22.61;46.74
11172;BME280;5642;50.830;12.082;2023-06-22T04:14:45;99794.66;;;22.46;47.17
11172;BME280;5642;50.830;12.082;2023-06-22T04:17:11;99784.38;;;22.29;47.11
11172;BME280;5642;50.830;12.082;2023-06-22T04:19:40;99787.50;;;22.23;47.27
11172;BME280;5642;50.830;12.082;2023-06-22T04:22:06;99794.66;;;22.22;47.57
11172;BME280;5642;50.830;12.082;2023-06-22T04:24:34;99783.84;;;22.24;47.36
11172;BME280;5642;50.830;12.082;2023-06-22T04:26:59;99772.00;;;22.28;47.37
11172;BME280;5642;50.830;12.082;2023-06-22T04:29:31;99761.50;;;22.38;47.51
11172;BME280;5642;50.830;12.082;2023-06-22T04:31:58;99763.47;;;22.47;47.27
11172;BME280;5642;50.830;12.082;2023-06-22T04:34:29;99760.63;;;22.61;47.19
11172;BME280;5642;50.830;12.082;2023-06-22T04:36:55;99760.63;;;22.96;46.83
11172;BME280;5642;50.830;12.082;2023-06-22T04:39:21;99750.72;;;23.31;46.37
11172;BME280;5642;50.830;12.082;2023-06-22T04:41:47;99737.25;;;23.77;46.04
11172;BME280;5642;50.830;12.082;2023-06-22T04:44:14;99732.22;;;24.49;44.99
11172;BME280;5642;50.830;12.082;2023-06-22T04:46:57;99706.59;;;25.19;44.13
11172;BME280;5642;50.830;12.082;2023-06-22T04:49:28;99687.72;;;25.60;43.87
11172;BME280;5642;50.830;12.082;2023-06-22T04:52:05;99633.97;;;25.81;43.89
11172;BME280;5642;50.830;12.082;2023-06-22T04:54:32;99589.63;;;25.67;43.65
11172;BME280;5642;50.830;12.082;2023-06-22T04:57:03;99631.19;;;25.43;44.23
11172;BME280;5642;50.830;12.082;2023-06-22T04:59:30;99645.00;;;25.28;44.92
11172;BME280;5642;50.830;12.082;2023-06-22T05:01:58;99626.31;;;25.17;45.46
11172;BME280;5642;50.830;12.082;2023-06-22T05:04:26;99611.75;;;25.10;45.59
11172;BME280;5642;50.830;12.082;2023-06-22T05:06:53;99603.31;;;25.15;45.45
11172;BME280;5642;50.830;12.082;2023-06-22T05:09:20;99583.69;;;25.14;45.78
11172;BME280;5642;50.830;12.082;2023-06-22T05:11:47;99568.31;;;25.16;45.83
11172;BME280;5642;50.830;12.082;2023-06-22T05:14:13;99560.44;;;25.24;46.26
11172;BME280;5642;50.830;12.082;2023-06-22T05:16:41;99533.34;;;25.27;45.82
11172;BME280;5642;50.830;12.082;2023-06-22T05:19:09;99503.41;;;25.22;46.04
11172;BME280;5642;50.830;12.082;2023-06-22T05:21:35;99501.91;;;25.39;46.30
11172;BME280;5642;50.830;12.082;2023-06-22T05:24:01;99513.78;;;25.56;45.78
11172;BME280;5642;50.830;12.082;2023-06-22T05:26:33;99520.16;;;25.74;45.51
11172;BME280;5642;50.830;12.082;2023-06-22T05:29:00;99529.91;;;25.85;45.82
11172;BME280;5642;50.830;12.082;2023-06-22T05:31:27;99544.44;;;25.92;45.51
11172;BME280;5642;50.830;12.082;2023-06-22T05:33:54;99550.34;;;25.95;45.71
11172;BME280;5642;50.830;12.082;2023-06-22T05:36:21;99569.84;;;25.97;46.03
11172;BME280;5642;50.830;12.082;2023-06-22T05:38:49;99581.84;;;26.03;45.80
11172;BME280;5642;50.830;12.082;2023-06-22T05:41:15;99580.75;;;26.05;45.92
11172;BME280;5642;50.830;12.082;2023-06-22T05:43:42;99574.38;;;26.06;45.97
11172;BME280;5642;50.830;12.082;2023-06-22T05:46:08;99575.34;;;26.15;46.02
11172;BME280;5642;50.830;12.082;2023-06-22T05:48:34;99555.59;;;26.06;45.99
11172;BME280;5642;50.830;12.082;2023-06-22T05:51:01;99515.06;;;25.81;46.09
11172;BME280;5642;50.830;12.082;2023-06-22T05:53:27;99541.31;;;25.96;45.96
11172;BME280;5642;50.830;12.082;2023-06-22T05:55:54;99589.63;;;26.35;45.89
11172;BME280;5642;50.830;12.082;2023-06-22T05:58:20;99592.41;;;26.52;45.40
11172;BME280;5642;50.830;12.082;2023-06-22T06:00:46;99597.34;;;27.13;44.86
11172;BME280;5642;50.830;12.082;2023-06-22T06:03:13;99595.31;;;27.88;43.95
11172;BME280;5642;50.830;12.082;2023-06-22T06:05:42;99607.13;;;28.92;42.94
11172;BME280;5642;50.830;12.082;2023-06-22T06:08:09;99588.91;;;29.94;41.52
11172;BME280;5642;50.830;12.082;2023-06-22T06:10:37;99596.09;;;31.07;40.96
11172;BME280;5642;50.830;12.082;2023-06-22T06:13:03;99602.75;;;32.20;40.07
11172;BME280;5642;50.830;12.082;2023-06-22T06:15:31;99597.66;;;33.36;39.03
11172;BME280;5642;50.830;12.082;2023-06-22T06:17:58;99570.31;;;34.37;38.71
11172;BME280;5642;50.830;12.082;2023-06-22T06:20:25;99594.88;;;35.54;37.83
11172;BME280;5642;50.830;12.082;2023-06-22T06:22:53;99598.44;;;36.48;37.12
11172;BME280;5642;50.830;12.082;2023-06-22T06:25:20;99600.44;;;37.25;36.87
11172;BME280;5642;50.830;12.082;2023-06-22T06:27:49;99595.47;;;37.98;36.19
11172;BME280;5642;50.830;12.082;2023-06-22T06:30:17;99580.59;;;38.68;35.54
11172;BME280;5642;50.830;12.082;2023-06-22T06:32:45;99596.09;;;39.36;35.13
11172;BME280;5642;50.830;12.082;2023-06-22T06:35:12;99597.94;;;39.90;35.01
11172;BME280;5642;50.830;12.082;2023-06-22T06:37:40;99593.75;;;40.29;34.52
11172;BME280;5642;50.830;12.082;2023-06-22T06:40:08;99586.25;;;40.59;34.10
11172;BME280;5642;50.830;12.082;2023-06-22T06:42:46;99573.63;;;40.82;34.03
11172;BME280;5642;50.830;12.082;2023-06-22T06:45:16;99590.03;;;41.28;33.89
11172;BME280;5642;50.830;12.082;2023-06-22T06:47:43;99595.31;;;41.70;33.28
11172;BME280;5642;50.830;12.082;2023-06-22T06:50:11;99597.50;;;42.13;33.00
11172;BME280;5642;50.830;12.082;2023-06-22T06:52:37;99596.03;;;42.55;33.02
11172;BME280;5642;50.830;12.082;2023-06-22T06:55:05;99587.69;;;43.06;32.61
11172;BME280;5642;50.830;12.082;2023-06-22T06:57:38;99570.91;;;43.29;32.18
11172;BME280;5642;50.830;12.082;2023-06-22T07:00:07;99581.72;;;43.84;32.04
11172;BME280;5642;50.830;12.082;2023-06-22T07:02:43;99564.53;;;44.31;31.66
11172;BME280;5642;50.830;12.082;2023-06-22T07:05:11;99532.44;;;44.62;30.92
11172;BME280;5642;50.830;12.082;2023-06-22T07:07:43;99559.84;;;45.15;30.98
11172;BME280;5642;50.830;12.082;2023-06-22T07:10:11;99549.94;;;45.35;31.03
11172;BME280;5642;50.830;12.082;2023-06-22T07:12:38;99539.50;;;45.47;30.38
11172;BME280;5642;50.830;12.082;2023-06-22T07:15:08;99529.00;;;45.69;30.28
11172;BME280;5642;50.830;12.082;2023-06-22T07:17:36;99553.97;;;46.20;30.28
11172;BME280;5642;50.830;12.082;2023-06-22T07:20:03;99558.69;;;46.45;30.33
11172;BME280;5642;50.830;12.082;2023-06-22T07:22:43;99543.44;;;46.67;29.73
11172;BME280;5642;50.830;12.082;2023-06-22T07:25:14;99561.16;;;46.82;29.41
11172;BME280;5642;50.830;12.082;2023-06-22T07:27:58;99554.91;;;47.20;29.10
11172;BME280;5642;50.830;12.082;2023-06-22T07:30:25;99553.28;;;47.68;29.23
11172;BME280;5642;50.830;12.082;2023-06-22T07:32:54;99538.53;;;48.12;28.69
11172;BME280;5642;50.830;12.082;2023-06-22T07:35:21;99530.31;;;48.31;28.41
11172;BME280;5642;50.830;12.082;2023-06-22T07:37:47;99546.25;;;48.49;28.52
11172;BME280;5642;50.830;12.082;2023-06-22T07:40:14;99538.66;;;48.59;28.23
11172;BME280;5642;50.830;12.082;2023-06-22T07:42:40;99540.66;;;48.54;28.29
11172;BME280;5642;50.830;12.082;2023-06-22T07:45:07;99543.66;;;48.28;27.92
11172;BME280;5642;50.830;12.082;2023-06-22T07:47:36;99539.56;;;48.21;27.63
11172;BME280;5642;50.830;12.082;2023-06-22T07:50:02;99536.25;;;48.48;27.39
11172;BME280;5642;50.830;12.082;2023-06-22T07:52:30;99512.16;;;48.67;27.28
11172;BME280;5642;50.830;12.082;2023-06-22T07:54:56;99520.38;;;49.01;27.07
11172;BME280;5642;50.830;12.082;2023-06-22T07:57:22;99511.97;;;49.06;26.30
11172;BME280;5642;50.830;12.082;2023-06-22T07:59:48;99511.94;;;49.30;26.71
11172;BME280;5642;50.830;12.082;2023-06-22T08:02:15;99512.63;;;49.40;26.08
11172;BME280;5642;50.830;12.082;2023-06-22T08:04:41;99515.41;;;49.40;26.57
11172;BME280;5642;50.830;12.082;2023-06-22T08:07:07;99504.44;;;49.07;26.18
11172;BME280;5642;50.830;12.082;2023-06-22T08:09:36;99513.22;;;48.71;26.41
11172;BME280;5642;50.830;12.082;2023-06-22T08:12:03;99513.81;;;48.44;26.32
11172;BME280;5642;50.830;12.082;2023-06-22T08:14:30;99511.84;;;48.45;26.57
11172;BME280;5642;50.830;12.082;2023-06-22T08:16:56;99497.25;;;48.58;26.28
11172;BME280;5642;50.830;12.082;2023-06-22T08:19:22;99509.78;;;48.55;25.95
11172;BME280;5642;50.830;12.082;2023-06-22T08:21:48;99506.00;;;48.17;25.83
11172;BME280;5642;50.830;12.082;2023-06-22T08:24:15;99508.56;;;47.75;25.81
11172;BME280;5642;50.830;12.082;2023-06-22T08:26:41;99485.44;;;47.45;25.94
11172;BME280;5642;50.830;12.082;2023-06-22T08:29:07;99489.13;;;47.31;25.51
11172;BME280;5642;50.830;12.082;2023-06-22T08:31:34;99493.09;;;47.14;26.00
11172;BME280;5642;50.830;12.082;2023-06-22T08:34:00;99498.44;;;46.91;25.96
11172;BME280;5642;50.830;12.082;2023-06-22T08:36:27;99501.63;;;46.59;25.95
11172;BME280;5642;50.830;12.082;2023-06-22T08:38:59;99494.72;;;46.26;26.06
11172;BME280;5642;50.830;12.082;2023-06-22T08:41:29;99495.00;;;46.14;25.85
11172;BME280;5642;50.830;12.082;2023-06-22T08:43:55;99487.81;;;46.28;25.60
11172;BME280;5642;50.830;12.082;2023-06-22T08:46:23;99493.84;;;46.66;25.50
11172;BME280;5642;50.830;12.082;2023-06-22T08:48:56;99479.91;;;46.81;25.70
11172;BME280;5642;50.830;12.082;2023-06-22T08:51:26;99480.38;;;47.08;25.49
11172;BME280;5642;50.830;12.082;2023-06-22T08:53:52;99490.50;;;47.33;25.20
11172;BME280;5642;50.830;12.082;2023-06-22T08:56:19;99495.44;;;47.41;25.09
11172;BME280;5642;50.830;12.082;2023-06-22T08:58:45;99481.44;;;47.18;25.38
11172;BME280;5642;50.830;12.082;2023-06-22T09:01:11;99474.56;;;47.05;25.50
11172;BME280;5642;50.830;12.082;2023-06-22T09:03:38;99446.66;;;46.76;25.48
11172;BME280;5642;50.830;12.082;2023-06-22T09:06:04;99475.13;;;47.02;25.42
11172;BME280;5642;50.830;12.082;2023-06-22T09:08:30;99464.81;;;47.12;24.91
11172;BME280;5642;50.830;12.082;2023-06-22T09:10:57;99474.03;;;47.47;24.73
11172;BME280;5642;50.830;12.082;2023-06-22T09:13:23;99464.75;;;47.67;25.04
11172;BME280;5642;50.830;12.082;2023-06-22T09:15:49;99472.63;;;47.88;24.54
11172;BME280;5642;50.830;12.082;2023-06-22T09:18:15;99458.25;;;47.81;24.79
11172;BME280;5642;50.830;12.082;2023-06-22T09:20:41;99445.22;;;48.11;24.50
11172;BME280;5642;50.830;12.082;2023-06-22T09:23:07;99457.72;;;48.61;24.28
11172;BME280;5642;50.830;12.082;2023-06-22T09:25:33;99455.28;;;49.02;24.19
11172;BME280;5642;50.830;12.082;2023-06-22T09:27:59;99457.03;;;49.35;24.40
11172;BME280;5642;50.830;12.082;2023-06-22T09:30:25;99457.09;;;49.68;23.67
11172;BME280;5642;50.830;12.082;2023-06-22T09:32:51;99450.47;;;49.83;23.43
11172;BME280;5642;50.830;12.082;2023-06-22T09:35:18;99439.44;;;49.91;23.35
11172;BME280;5642;50.830;12.082;2023-06-22T09:37:44;99432.22;;;50.23;23.47
11172;BME280;5642;50.830;12.082;2023-06-22T09:40:11;99445.72;;;50.29;23.78
11172;BME280;5642;50.830;12.082;2023-06-22T09:42:39;99434.28;;;50.44;22.92
11172;BME280;5642;50.830;12.082;2023-06-22T09:45:05;99436.53;;;50.70;23.29
11172;BME280;5642;50.830;12.082;2023-06-22T09:47:32;99436.59;;;51.06;22.75
11172;BME280;5642;50.830;12.082;2023-06-22T09:49:58;99431.81;;;51.56;21.92
11172;BME280;5642;50.830;12.082;2023-06-22T09:52:25;99429.03;;;52.09;22.22
11172;BME280;5642;50.830;12.082;2023-06-22T09:54:52;99406.41;;;52.50;21.46
11172;BME280;5642;50.830;12.082;2023-06-22T09:57:20;99426.06;;;53.02;20.76
11172;BME280;5642;50.830;12.082;2023-06-22T10:00:01;99415.56;;;53.25;21.53
11172;BME280;5642;50.830;12.082;2023-06-22T10:02:27;99420.84;;;53.35;20.94
11172;BME280;5642;50.830;12.082;2023-06-22T10:04:53;99402.22;;;53.13;20.86
11172;BME280;5642;50.830;12.082;2023-06-22T10:07:22;99409.13;;;52.98;21.17
11172;BME280;5642;50.830;12.082;2023-06-22T10:09:49;99412.91;;;52.85;21.11
11172;BME280;5642;50.830;12.082;2023-06-22T10:12:15;99408.94;;;52.95;20.76
11172;BME280;5642;50.830;12.082;2023-06-22T10:14:41;99396.72;;;52.73;20.81
11172;BME280;5642;50.830;12.082;2023-06-22T10:17:07;99382.28;;;52.32;21.02
11172;BME280;5642;50.830;12.082;2023-06-22T10:19:33;99398.34;;;52.18;20.73
11172;BME280;5642;50.830;12.082;2023-06-22T10:21:59;99401.50;;;52.25;20.87
11172;BME280;5642;50.830;12.082;2023-06-22T10:24:25;99378.50;;;52.28;21.00
11172;BME280;5642;50.830;12.082;2023-06-22T10:26:51;99366.88;;;51.73;20.60
11172;BME280;5642;50.830;12.082;2023-06-22T10:29:17;99390.81;;;51.20;20.68
11172;BME280;5642;50.830;12.082;2023-06-22T10:31:44;99392.44;;;50.85;20.95
11172;BME280;5642;50.830;12.082;2023-06-22T10:34:10;99375.09;;;50.47;20.71
11172;BME280;5642;50.830;12.082;2023-06-22T10:36:38;99370.50;;;50.29;20.29
11172;BME280;5642;50.830;12.082;2023-06-22T10:39:04;99373.56;;;50.41;21.03
11172;BME280;5642;50.830;12.082;2023-06-22T10:41:30;99385.84;;;50.68;20.28
11172;BME280;5642;50.830;12.082;2023-06-22T10:43:56;99378.19;;;50.60;20.54
11172;BME280;5642;50.830;12.082;2023-06-22T10:46:24;99368.94;;;50.37;20.78
11172;BME280;5642;50.830;12.082;2023-06-22T10:48:52;99374.09;;;50.43;20.95
11172;BME280;5642;50.830;12.082;2023-06-22T10:51:20;99369.00;;;50.45;21.26
11172;BME280;5642;50.830;12.082;2023-06-22T10:53:46;99370.09;;;50.49;20.25
11172;BME280;5642;50.830;12.082;2023-06-22T10:56:12;99363.53;;;50.68;20.36
11172;BME280;5642;50.830;12.082;2023-06-22T10:58:38;99361.38;;;50.65;20.03
11172;BME280;5642;50.830;12.082;2023-06-22T11:01:05;99357.88;;;50.32;20.22
11172;BME280;5642;50.830;12.082;2023-06-22T11:03:31;99345.16;;;49.85;19.86
11172;BME280;5642;50.830;12.082;2023-06-22T11:05:57;99355.13;;;49.72;20.39
11172;BME280;5642;50.830;12.082;2023-06-22T11:08:23;99348.31;;;49.64;20.66
11172;BME280;5642;50.830;12.082;2023-06-22T11:10:51;99359.94;;;49.34;20.15
11172;BME280;5642;50.830;12.082;2023-06-22T11:13:17;99351.38;;;48.74;20.03
11172;BME280;5642;50.830;12.082;2023-06-22T11:15:43;99345.28;;;48.06;20.47
11172;BME280;5642;50.830;12.082;2023-06-22T11:18:09;99336.59;;;47.21;20.64
11172;BME280;5642;50.830;12.082;2023-06-22T11:20:37;99344.31;;;46.30;20.97
11172;BME280;5642;50.830;12.082;2023-06-22T11:23:05;99348.03;;;45.55;21.01
11172;BME280;5642;50.830;12.082;2023-06-22T11:25:32;99331.72;;;45.23;20.79
11172;BME280;5642;50.830;12.082;2023-06-22T11:28:04;99321.78;;;45.12;21.22
11172;BME280;5642;50.830;12.082;2023-06-22T11:30:30;99332.78;;;44.97;21.18
11172;BME280;5642;50.830;12.082;2023-06-22T11:32:58;99320.03;;;44.75;20.71
11172;BME280;5642;50.830;12.082;2023-06-22T11:35:25;99326.09;;;44.72;20.46
11172;BME280;5642;50.830;12.082;2023-06-22T11:37:52;99328.47;;;44.48;20.41
11172;BME280;5642;50.830;12.082;2023-06-22T11:40:18;99318.03;;;43.98;20.64
11172;BME280;5642;50.830;12.082;2023-06-22T11:42:44;99300.84;;;43.49;20.71
11172;BME280;5642;50.830;12.082;2023-06-22T11:45:11;99296.41;;;43.11;20.44
11172;BME280;5642;50.830;12.082;2023-06-22T11:47:38;99307.09;;;42.76;20.40
11172;BME280;5642;50.830;12.082;2023-06-22T11:50:05;99309.47;;;42.24;20.71
11172;BME280;5642;50.830;12.082;2023-06-22T11:52:33;99294.28;;;41.61;20.41
11172;BME280;5642;50.830;12.082;2023-06-22T11:55:02;99295.00;;;41.06;21.05
11172;BME280;5642;50.830;12.082;2023-06-22T11:57:35;99288.41;;;40.62;20.79
11172;BME280;5642;50.830;12.082;2023-06-22T12:00:02;99288.31;;;40.28;21.18
11172;BME280;5642;50.830;12.082;2023-06-22T12:02:32;99282.59;;;39.95;21.39
11172;BME280;5642;50.830;12.082;2023-06-22T12:04:58;99291.34;;;39.80;21.18
11172;BME280;5642;50.830;12.082;2023-06-22T12:07:24;99280.50;;;39.62;21.36
11172;BME280;5642;50.830;12.082;2023-06-22T12:09:51;99268.69;;;39.50;21.27
11172;BME280;5642;50.830;12.082;2023-06-22T12:12:17;99265.56;;;39.35;21.32
11172;BME280;5642;50.830;12.082;2023-06-22T12:14:43;99273.19;;;39.21;21.49
11172;BME280;5642;50.830;12.082;2023-06-22T12:17:09;99263.03;;;38.98;21.36
11172;BME280;5642;50.830;12.082;2023-06-22T12:19:36;99252.72;;;38.82;21.61
11172;BME280;5642;50.830;12.082;2023-06-22T12:22:02;99248.41;;;38.74;21.77
11172;BME280;5642;50.830;12.082;2023-06-22T12:24:29;99242.44;;;38.66;21.76
11172;BME280;5642;50.830;12.082;2023-06-22T12:26:56;99244.53;;;38.52;21.55
11172;BME280;5642;50.830;12.082;2023-06-22T12:29:23;99222.44;;;38.35;21.48
11172;BME280;5642;50.830;12.082;2023-06-22T12:31:49;99235.84;;;38.25;21.89
11172;BME280;5642;50.830;12.082;2023-06-22T12:34:15;99230.00;;;38.04;21.73
11172;BME280;5642;50.830;12.082;2023-06-22T12:36:42;99238.00;;;37.87;21.75
11172;BME280;5642;50.830;12.082;2023-06-22T12:39:10;99209.28;;;37.59;22.15
11172;BME280;5642;50.830;12.082;2023-06-22T12:41:39;99194.66;;;37.47;22.18
11172;BME280;5642;50.830;12.082;2023-06-22T12:44:06;99187.47;;;37.35;22.44
11172;BME280;5642;50.830;12.082;2023-06-22T12:46:32;99212.53;;;37.50;22.19
11172;BME280;5642;50.830;12.082;2023-06-22T12:49:04;99211.53;;;37.44;21.96
11172;BME280;5642;50.830;12.082;2023-06-22T12:51:30;99194.81;;;37.34;22.35
11172;BME280;5642;50.830;12.082;2023-06-22T12:53:56;99198.75;;;37.38;22.13
11172;BME280;5642;50.830;12.082;2023-06-22T12:56:23;99186.69;;;37.28;22.38
11172;BME280;5642;50.830;12.082;2023-06-22T12:58:49;99198.06;;;37.24;22.31
11172;BME280;5642;50.830;12.082;2023-06-22T13:01:16;99204.22;;;37.20;22.77
11172;BME280;5642;50.830;12.082;2023-06-22T13:03:44;99199.66;;;37.14;22.74
11172;BME280;5642;50.830;12.082;2023-06-22T13:06:13;99186.03;;;37.07;22.84